Terminal Aerodrome Forecast
Issued by NWS

Home | Current Version | Previous Version | Graphics & Text | Print | Product List | Glossary On
Versions: 1 2 3 4 5 6 7 8 9 10 11 12 13 14 15 16 17 18 19 20 21 22 23 24 25 26 27 28 29 30 31
000
FTUS43 KABR 272021 AAA
TAFMBG
TAF AMD
KMBG 272021Z 2720/2818 15019G26KT P6SM SKC
     FM280500 15022G32KT P6SM SCT100
      TEMPO 2805/2809 P6SM TS BKN050CB
     FM280900 30025G35KT P6SM SKC=

USA.gov is the U.S. government's official web portal to all federal, state and local government web resources and services.